Time;durP1;ratioP1;P1;durP2;ratioP2;P2;SDS_P1;SDS_P2;PMS_P1;PMS_P2;Temp;Humidity;BMP_temperature;BMP_pressure;BME280_temperature;BME280_humidity;BME280_pressure;Samples;Min_cycle;Max_cycle;Signal;HPM_P1;HPM_P2
2022/08/05 00:01:11;;;;;;;2.28;2.05;;;;;;;33.04;27.51;98210.56;5060960;28;20485;-80
2022/08/05 00:03:37;;;;;;;2.25;2.15;;;;;;;33.18;27.16;98204.06;5072492;28;20494;-80
2022/08/05 00:06:03;;;;;;;2.08;1.77;;;;;;;33.20;27.22;98201.50;5062150;28;20431;-80
2022/08/05 00:08:30;;;;;;;2.15;2.00;;;;;;;32.90;27.57;98199.94;5062964;28;20035;-80
2022/08/05 00:10:57;;;;;;;1.90;1.80;;;;;;;32.44;28.23;98196.78;5053979;28;20037;-80
2022/08/05 00:13:23;;;;;;;2.92;2.35;;;;;;;32.18;28.50;98199.41;5054148;28;20024;-80
2022/08/05 00:15:49;;;;;;;3.67;2.40;;;;;;;32.02;28.63;98200.63;5055632;28;20484;-80
2022/08/05 00:18:15;;;;;;;2.67;2.47;;;;;;;32.06;28.77;98204.06;5062866;28;20051;-80
2022/08/05 00:20:41;;;;;;;3.10;2.60;;;;;;;32.05;28.77;98201.69;5057028;28;20037;-80
2022/08/05 00:23:07;;;;;;;2.53;2.33;;;;;;;32.28;28.32;98197.25;5056344;28;20036;-80
2022/08/05 00:25:33;;;;;;;4.13;2.33;;;;;;;32.36;28.25;98189.91;5060878;28;20111;-80
2022/08/05 00:27:59;;;;;;;2.60;2.35;;;;;;;32.37;27.97;98194.34;5058978;28;20047;-80
2022/08/05 00:30:25;;;;;;;2.60;2.40;;;;;;;32.35;28.10;98188.34;5054052;28;20434;-80
2022/08/05 00:32:51;;;;;;;3.45;2.15;;;;;;;32.04;28.87;98192.38;5061109;28;20557;-80
2022/08/05 00:35:18;;;;;;;2.55;2.33;;;;;;;31.57;29.66;98188.78;5054154;28;20044;-80
2022/08/05 00:37:44;;;;;;;2.70;2.20;;;;;;;30.84;30.84;98180.56;5060966;28;20451;-80
2022/08/05 00:40:10;;;;;;;2.22;2.00;;;;;;;31.37;29.76;98192.16;5057125;28;20032;-80
2022/08/05 00:42:40;;;;;;;2.50;1.98;;;;;;;31.86;28.94;98184.00;5054854;28;20043;-80
2022/08/05 00:45:08;;;;;;;2.38;2.17;;;;;;;32.08;28.42;98181.66;5056932;28;20087;-80
2022/08/05 00:47:35;;;;;;;2.63;2.42;;;;;;;31.78;29.03;98191.31;5057924;28;20029;-80
2022/08/05 00:50:01;;;;;;;2.85;1.60;;;;;;;32.09;28.33;98182.44;5057489;28;20029;-80
2022/08/05 00:52:27;;;;;;;2.33;2.13;;;;;;;31.67;29.23;98174.03;5060753;28;20037;-80
2022/08/05 00:54:53;;;;;;;2.00;1.75;;;;;;;31.92;28.45;98178.44;5053728;28;20447;-80
2022/08/05 00:57:20;;;;;;;4.95;2.15;;;;;;;31.87;28.20;98177.06;5055502;28;20128;-80
2022/08/05 00:59:47;;;;;;;3.25;2.20;;;;;;;31.85;28.86;98173.13;5052575;28;20028;-80
2022/08/05 01:02:13;;;;;;;1.88;1.70;;;;;;;32.58;27.00;98178.97;5060247;28;20120;-80
2022/08/05 01:04:39;;;;;;;1.63;1.52;;;;;;;32.26;27.88;98171.38;5057373;28;20071;-80
2022/08/05 01:07:05;;;;;;;1.92;1.80;;;;;;;32.05;28.31;98162.72;5062282;28;20392;-80
2022/08/05 01:09:31;;;;;;;1.92;1.75;;;;;;;31.99;28.28;98164.69;5058342;28;20035;-80
2022/08/05 01:12:03;;;;;;;2.88;1.73;;;;;;;32.54;27.34;98159.28;5059825;28;20040;-80
2022/08/05 01:14:43;;;;;;;3.15;1.95;;;;;;;32.67;27.09;98158.97;5064979;28;20021;-80
2022/08/05 01:17:12;;;;;;;;;;;;;;;32.49;26.59;98148.56;5058584;28;20041;-79
2022/08/05 01:19:57;;;;;;;3.05;1.65;;;;;;;32.36;27.76;98150.91;5064484;28;20015;-80
2022/08/05 01:22:55;;;;;;;2.08;1.80;;;;;;;32.33;27.07;98143.34;5061637;28;20128;-80
2022/08/05 01:25:27;;;;;;;1.48;1.38;;;;;;;32.48;27.59;98149.03;5039404;28;20064;-80
2022/08/05 01:28:23;;;;;;;2.10;1.77;;;;;;;31.94;28.03;98151.13;5069569;28;20036;-80
2022/08/05 01:30:59;;;;;;;1.77;1.67;;;;;;;32.50;27.42;98155.06;5064523;28;20052;-80
2022/08/05 01:33:33;;;;;;;1.70;1.60;;;;;;;32.48;26.98;98146.22;5056464;28;20035;-80
2022/08/05 01:36:02;;;;;;;1.50;1.40;;;;;;;32.46;26.87;98148.75;5055975;28;20491;-80
2022/08/05 01:38:31;;;;;;;3.20;1.30;;;;;;;32.06;27.39;98143.63;5058160;28;21443;-80
2022/08/05 01:41:01;;;;;;;1.95;1.60;;;;;;;32.33;27.25;98139.72;5062432;28;20032;-80
2022/08/05 01:43:28;;;;;;;1.95;1.85;;;;;;;32.19;27.35;98137.66;5058540;28;20033;-80
2022/08/05 01:45:56;;;;;;;1.60;1.50;;;;;;;32.52;26.67;98135.44;5062094;28;20025;-80
2022/08/05 01:48:23;;;;;;;1.55;1.45;;;;;;;32.82;26.04;98131.28;5056437;28;20489;-80
2022/08/05 01:50:51;;;;;;;2.17;1.58;;;;;;;32.98;26.14;98132.84;5055777;28;20036;-80
2022/08/05 01:53:20;;;;;;;1.58;1.48;;;;;;;32.83;26.35;98132.09;5060669;28;20055;-80
2022/08/05 01:55:48;;;;;;;1.52;1.42;;;;;;;32.77;26.36;98129.13;5059714;28;20511;-80
2022/08/05 01:58:15;;;;;;;1.40;1.30;;;;;;;32.75;26.17;98128.84;5061596;28;20063;-80
2022/08/05 02:00:46;;;;;;;1.80;1.70;;;;;;;33.03;26.01;98135.00;5057699;28;20025;-80
2022/08/05 02:03:24;;;;;;;1.55;1.45;;;;;;;32.19;27.60;98129.91;5059832;28;20051;-80
2022/08/05 02:05:52;;;;;;;1.65;1.50;;;;;;;32.38;27.09;98124.81;5056198;28;20029;-80
2022/08/05 02:08:19;;;;;;;1.80;1.70;;;;;;;32.34;27.05;98127.88;5064681;28;20033;-80
2022/08/05 02:10:52;;;;;;;1.80;1.70;;;;;;;32.16;27.62;98124.44;5063592;28;20059;-80
2022/08/05 02:13:26;;;;;;;2.15;1.65;;;;;;;31.81;28.04;98124.25;5059785;28;20510;-80
2022/08/05 02:16:02;;;;;;;1.77;1.67;;;;;;;31.63;28.43;98122.34;5061552;28;20033;-80
2022/08/05 02:18:47;;;;;;;3.25;1.50;;;;;;;31.77;28.58;98118.75;5067626;28;20036;-80
2022/08/05 02:21:27;;;;;;;1.40;1.30;;;;;;;31.88;28.49;98118.19;5063946;28;20088;-80
2022/08/05 02:23:55;;;;;;;2.10;2.00;;;;;;;30.71;30.52;98131.81;5063543;28;20029;-80
2022/08/05 02:26:34;;;;;;;2.03;1.75;;;;;;;31.56;28.63;98128.38;5059050;28;20032;-80
2022/08/05 02:29:01;;;;;;;4.72;2.28;;;;;;;31.95;28.25;98114.97;5065934;28;20377;-80
2022/08/05 02:31:30;;;;;;;2.38;2.17;;;;;;;31.22;29.38;98115.50;5055498;28;20071;-80
2022/08/05 02:34:10;;;;;;;2.05;1.95;;;;;;;31.31;29.52;98115.44;5055906;28;20044;-80
2022/08/05 02:36:41;;;;;;;2.15;1.90;;;;;;;31.63;28.72;98121.53;5067905;28;20032;-80
2022/08/05 02:39:09;;;;;;;;;;;;;;;31.48;28.63;98117.88;5055868;28;20484;-80
2022/08/05 02:41:37;;;;;;;2.00;1.80;;;;;;;31.69;28.47;98117.56;5068498;28;19924;-80
2022/08/05 02:44:09;;;;;;;2.00;1.90;;;;;;;31.86;28.09;98113.00;5064225;28;20031;-80
2022/08/05 02:46:37;;;;;;;1.70;1.60;;;;;;;32.27;27.36;98107.59;5061535;28;20032;-80
2022/08/05 02:49:06;;;;;;;1.85;1.75;;;;;;;32.68;26.78;98107.28;5061546;28;20063;-80
2022/08/05 02:51:36;;;;;;;4.28;2.28;;;;;;;32.22;27.62;98105.44;5061467;28;20040;-80
2022/08/05 02:54:03;;;;;;;1.83;1.73;;;;;;;32.43;27.13;98102.19;5062283;28;20492;-80
2022/08/05 02:56:31;;;;;;;1.75;1.65;;;;;;;32.61;26.99;98101.22;5063115;28;20044;-80
2022/08/05 02:58:58;;;;;;;1.73;1.63;;;;;;;32.71;26.68;98108.38;5058878;28;20381;-80
2022/08/05 03:01:26;;;;;;;1.70;1.60;;;;;;;32.90;26.48;98103.22;5055864;28;20037;-80
2022/08/05 03:04:00;;;;;;;1.85;1.70;;;;;;;32.77;26.47;98099.94;5054321;28;20051;-80
2022/08/05 03:06:27;;;;;;;1.98;1.80;;;;;;;32.83;26.78;98106.47;5062485;28;20103;-80
2022/08/05 03:08:54;;;;;;;1.70;1.60;;;;;;;33.07;26.23;98102.22;5059995;28;20366;-80
2022/08/05 03:11:25;;;;;;;1.70;1.60;;;;;;;33.12;26.36;98100.72;5059328;28;20086;-80
2022/08/05 03:13:52;;;;;;;2.72;1.60;;;;;;;33.14;25.90;98106.72;5058197;28;20060;-80
2022/08/05 03:16:19;;;;;;;1.90;1.73;;;;;;;33.15;26.02;98097.69;5064538;28;20021;-80
2022/08/05 03:18:45;;;;;;;2.30;1.50;;;;;;;33.27;25.66;98096.56;5061220;28;20032;-80
2022/08/05 03:21:13;;;;;;;3.47;1.25;;;;;;;33.24;26.01;98093.91;5059380;28;20776;-80
2022/08/05 03:23:42;;;;;;;1.15;1.05;;;;;;;33.22;25.74;98097.28;5052756;28;20029;-80
2022/08/05 03:26:09;;;;;;;3.67;1.40;;;;;;;33.26;25.81;98100.69;5063192;28;20041;-80
2022/08/05 03:28:36;;;;;;;1.55;1.45;;;;;;;33.21;26.13;98107.06;5059376;28;20060;-80
2022/08/05 03:31:03;;;;;;;3.20;1.60;;;;;;;33.06;26.17;98097.03;5057171;28;20063;-80
2022/08/05 03:33:30;;;;;;;1.50;1.40;;;;;;;32.94;26.22;98098.91;5063682;28;20440;-80
2022/08/05 03:35:58;;;;;;;1.33;1.23;;;;;;;32.78;26.53;98096.59;5062177;28;20020;-80
2022/08/05 03:38:25;;;;;;;1.50;1.40;;;;;;;32.99;25.80;98092.50;5062323;28;20036;-80
2022/08/05 03:40:52;;;;;;;1.30;1.20;;;;;;;33.07;25.85;98090.84;5067907;28;20395;-80
2022/08/05 03:43:19;;;;;;;3.55;1.40;;;;;;;33.21;25.58;98095.69;5058744;28;20124;-80
2022/08/05 03:45:46;;;;;;;1.50;1.40;;;;;;;33.24;25.61;98100.41;5090925;28;20503;-80
2022/08/05 03:48:12;;;;;;;1.75;1.63;;;;;;;33.38;25.19;98104.47;5062704;28;20767;-80
2022/08/05 03:50:44;;;;;;;2.70;1.33;;;;;;;33.50;25.06;98099.69;5060521;28;20029;-81
2022/08/05 03:53:22;;;;;;;1.60;1.50;;;;;;;33.59;25.21;98108.13;5054699;28;20079;-80
2022/08/05 03:55:59;;;;;;;1.52;1.42;;;;;;;33.39;25.53;98094.66;5057825;28;20035;-80
2022/08/05 03:58:29;;;;;;;1.23;1.20;;;;;;;33.40;25.46;98097.00;5058603;28;20112;-80
2022/08/05 04:00:58;;;;;;;1.40;1.30;;;;;;;33.28;25.85;98095.28;5064008;28;20034;-80
2022/08/05 04:03:26;;;;;;;2.17;1.95;;;;;;;33.30;25.83;98098.41;5058055;28;20468;-80
2022/08/05 04:05:53;;;;;;;2.05;1.95;;;;;;;33.68;25.70;98102.31;5056717;28;20160;-80
2022/08/05 04:08:19;;;;;;;1.45;1.35;;;;;;;34.06;25.52;98102.75;5055115;28;20553;-80
2022/08/05 04:10:45;;;;;;;1.50;1.40;;;;;;;34.42;25.53;98107.00;5056572;28;20028;-80
2022/08/05 04:13:12;;;;;;;1.75;1.65;;;;;;;34.39;25.38;98101.50;5054193;28;20158;-80
2022/08/05 04:15:39;;;;;;;2.38;1.60;;;;;;;34.43;25.48;98096.34;5055235;28;20885;-80
2022/08/05 04:18:05;;;;;;;1.88;1.75;;;;;;;34.61;25.58;98102.50;5062402;28;20080;-80
2022/08/05 04:20:32;;;;;;;1.73;1.63;;;;;;;34.55;25.31;98098.06;5063988;28;20392;-81
2022/08/05 04:22:58;;;;;;;1.48;1.38;;;;;;;34.43;25.74;98099.22;5058064;28;20049;-81
2022/08/05 04:25:24;;;;;;;1.63;1.52;;;;;;;34.39;26.33;98099.44;5062480;28;20086;-81
2022/08/05 04:27:50;;;;;;;1.65;1.55;;;;;;;34.47;26.54;98103.41;5059305;28;20033;-81
2022/08/05 04:30:16;;;;;;;3.05;1.77;;;;;;;34.85;26.39;98101.41;5057351;28;20165;-81
2022/08/05 04:32:42;;;;;;;1.23;1.23;;;;;;;34.89;26.06;98101.97;5056648;28;20032;-81
2022/08/05 04:35:08;;;;;;;2.33;2.13;;;;;;;34.96;25.92;98104.34;5056770;28;20045;-82
2022/08/05 04:37:34;;;;;;;1.83;1.73;;;;;;;34.91;26.18;98103.03;5055854;28;20036;-81
2022/08/05 04:40:00;;;;;;;2.80;1.75;;;;;;;35.12;26.24;98106.56;5058678;28;20029;-81
2022/08/05 04:42:26;;;;;;;1.60;1.50;;;;;;;35.21;26.26;98104.28;5055021;28;20099;-81
2022/08/05 04:44:52;;;;;;;1.63;1.52;;;;;;;35.17;26.70;98100.09;5057126;28;20061;-81
2022/08/05 04:47:18;;;;;;;1.85;1.40;;;;;;;35.27;26.67;98096.50;5067218;28;20040;-81
2022/08/05 04:49:45;;;;;;;1.50;1.40;;;;;;;35.53;26.26;98098.47;5055945;28;20100;-81
2022/08/05 04:52:11;;;;;;;1.98;1.52;;;;;;;35.65;26.34;98100.88;5063555;28;20040;-81
2022/08/05 04:54:37;;;;;;;1.58;1.48;;;;;;;35.70;27.23;98094.41;5056121;28;20040;-81
2022/08/05 04:57:03;;;;;;;1.23;1.20;;;;;;;35.67;26.80;98095.44;5060470;28;20033;-81
2022/08/05 04:59:29;;;;;;;1.10;1.08;;;;;;;35.82;26.89;98090.31;5061734;28;20029;-81
2022/08/05 05:01:57;;;;;;;1.58;1.48;;;;;;;35.93;27.30;98090.34;5059345;28;20033;-81
2022/08/05 05:04:23;;;;;;;1.27;1.17;;;;;;;35.90;26.63;98094.22;5066692;28;20032;-81
2022/08/05 05:06:49;;;;;;;1.80;1.70;;;;;;;35.88;27.06;98087.44;5067983;28;20043;-81
2022/08/05 05:09:15;;;;;;;1.30;1.20;;;;;;;35.89;27.47;98094.72;5057695;28;20048;-81
2022/08/05 05:11:41;;;;;;;2.45;1.30;;;;;;;35.98;27.25;98092.47;5063695;28;20035;-82
2022/08/05 05:14:07;;;;;;;2.60;1.70;;;;;;;35.89;27.89;98092.66;5075664;28;20488;-82
2022/08/05 05:16:33;;;;;;;1.60;1.50;;;;;;;35.82;27.83;98096.03;5061992;28;20090;-81
2022/08/05 05:18:59;;;;;;;1.60;1.50;;;;;;;35.66;28.49;98093.84;5065647;28;20388;-82
2022/08/05 05:21:25;;;;;;;1.50;1.33;;;;;;;35.75;27.41;98090.00;5064386;28;20512;-82
2022/08/05 05:23:51;;;;;;;1.20;1.10;;;;;;;35.63;28.50;98088.41;5055567;28;20489;-81
2022/08/05 05:26:18;;;;;;;1.95;1.33;;;;;;;35.69;28.66;98089.19;5060410;28;20439;-82
2022/08/05 05:28:44;;;;;;;1.30;1.30;;;;;;;35.71;28.08;98098.81;5066984;28;20029;-82
2022/08/05 05:31:10;;;;;;;1.30;1.20;;;;;;;35.66;27.89;98099.56;5060371;28;20392;-82
2022/08/05 05:33:36;;;;;;;2.75;1.25;;;;;;;35.77;28.10;98107.41;5056257;28;20094;-82
2022/08/05 05:36:02;;;;;;;1.73;1.40;;;;;;;35.72;28.40;98103.25;5057207;28;20037;-82
2022/08/05 05:38:28;;;;;;;1.30;1.20;;;;;;;35.66;28.19;98105.28;5067038;28;20527;-82
2022/08/05 05:40:57;;;;;;;1.25;1.15;;;;;;;35.73;28.72;98101.19;5072621;28;20036;-82
2022/08/05 05:43:24;;;;;;;1.33;1.23;;;;;;;35.89;28.65;98103.31;5063385;28;20503;-82
2022/08/05 05:45:50;;;;;;;1.30;1.20;;;;;;;35.97;27.71;98096.59;5073531;28;20060;-82
2022/08/05 05:48:16;;;;;;;1.77;1.38;;;;;;;35.79;28.60;98099.13;5056093;28;20025;-82
2022/08/05 05:50:42;;;;;;;1.27;1.17;;;;;;;35.58;29.22;98095.66;5057591;28;20112;-82
2022/08/05 05:53:09;;;;;;;1.30;1.20;;;;;;;35.62;28.92;98098.25;5056154;28;20037;-82
2022/08/05 05:55:35;;;;;;;1.55;1.45;;;;;;;35.81;28.74;98097.31;5055192;28;20174;-82
2022/08/05 05:58:01;;;;;;;2.97;1.40;;;;;;;36.15;27.78;98094.56;5056109;28;20030;-82
2022/08/05 06:00:27;;;;;;;1.42;1.33;;;;;;;36.22;28.05;98099.78;5064267;28;20033;-82
2022/08/05 06:02:53;;;;;;;5.80;2.17;;;;;;;36.15;27.26;98100.28;5057704;28;20107;-82
2022/08/05 06:05:20;;;;;;;1.50;1.40;;;;;;;36.62;26.29;98093.56;5057209;28;20570;-82
2022/08/05 06:07:46;;;;;;;1.70;1.60;;;;;;;36.48;27.16;98101.13;5070216;28;20391;-82
2022/08/05 06:10:12;;;;;;;2.70;1.30;;;;;;;36.93;25.05;98101.13;5064388;28;20111;-82
2022/08/05 06:12:39;;;;;;;1.90;1.80;;;;;;;37.11;26.79;98101.38;5055297;28;20104;-82
2022/08/05 06:15:06;;;;;;;1.60;1.50;;;;;;;37.22;26.57;98098.50;5055762;28;20038;-82
2022/08/05 06:17:32;;;;;;;1.90;1.80;;;;;;;37.18;24.86;98103.69;5076269;28;20489;-82
2022/08/05 06:19:59;;;;;;;5.82;2.15;;;;;;;37.12;25.45;98105.81;5064070;28;20037;-82
2022/08/05 06:22:31;;;;;;;1.73;1.55;;;;;;;37.21;26.39;98108.38;5067798;28;20066;-82
2022/08/05 06:24:58;;;;;;;1.90;1.77;;;;;;;37.14;27.02;98106.06;5073167;28;20077;-82
2022/08/05 06:27:24;;;;;;;1.65;1.55;;;;;;;37.37;25.28;98099.00;5072685;28;20134;-82
2022/08/05 06:29:50;;;;;;;2.45;1.98;;;;;;;36.95;26.66;98102.19;5062224;28;20098;-82
2022/08/05 06:32:16;;;;;;;1.80;1.70;;;;;;;37.64;24.39;98090.81;5055961;28;20115;-82
2022/08/05 06:34:43;;;;;;;1.88;1.77;;;;;;;37.55;26.01;98105.44;5077666;28;20040;-82
2022/08/05 06:37:09;;;;;;;1.63;1.52;;;;;;;37.36;26.39;98099.50;5072417;28;20033;-82
2022/08/05 06:39:37;;;;;;;2.10;1.67;;;;;;;37.74;25.35;98101.44;5059097;28;20035;-82
2022/08/05 06:42:03;;;;;;;1.80;1.70;;;;;;;37.55;27.08;98096.84;5072214;28;20043;-82
2022/08/05 06:44:30;;;;;;;1.80;1.70;;;;;;;36.79;27.50;98099.28;5068500;28;20542;-82
2022/08/05 06:46:56;;;;;;;2.20;2.10;;;;;;;36.42;27.85;98093.81;5054279;28;20485;-83
2022/08/05 06:49:23;;;;;;;1.85;1.75;;;;;;;36.86;27.28;98099.56;5063212;28;20040;-83
2022/08/05 06:51:49;;;;;;;1.92;1.83;;;;;;;36.87;26.92;98095.41;5066513;28;20093;-83
2022/08/05 06:54:15;;;;;;;1.70;1.60;;;;;;;37.44;26.09;98094.78;5074411;28;20044;-82
2022/08/05 06:56:41;;;;;;;2.28;2.08;;;;;;;38.20;25.97;98092.09;5068983;28;21779;-83
2022/08/05 06:59:09;;;;;;;1.98;1.83;;;;;;;38.72;23.91;98095.66;5086271;28;20037;-82
2022/08/05 07:01:35;;;;;;;1.70;1.60;;;;;;;37.70;25.50;98092.34;5065365;28;20055;-83
2022/08/05 07:04:01;;;;;;;1.98;1.73;;;;;;;38.13;25.00;98092.69;5059279;28;20036;-82
2022/08/05 07:06:27;;;;;;;2.25;1.60;;;;;;;37.82;24.67;98087.34;5072602;28;20611;-82
2022/08/05 07:08:53;;;;;;;2.10;1.95;;;;;;;38.24;25.56;98092.59;5078841;28;20051;-82
2022/08/05 07:11:19;;;;;;;2.65;2.15;;;;;;;38.34;23.88;98088.13;5053457;28;20036;-83
2022/08/05 07:16:48;;;;;;;1.90;1.80;;;;;;;37.73;26.17;98081.91;5062058;28;20051;-82
2022/08/05 07:19:16;;;;;;;1.70;1.60;;;;;;;38.59;24.31;98089.75;5070471;28;20100;-82
2022/08/05 07:21:44;;;;;;;1.40;1.30;;;;;;;38.14;25.20;98085.63;5060151;28;20060;-82
2022/08/05 07:24:10;;;;;;;1.55;1.45;;;;;;;38.63;24.27;98095.97;5056564;28;20041;-83
2022/08/05 07:26:37;;;;;;;2.05;1.85;;;;;;;37.44;26.16;98099.78;5088639;28;20065;-82
2022/08/05 07:29:03;;;;;;;2.58;2.05;;;;;;;37.14;28.10;98099.53;5071974;28;20433;-82
2022/08/05 07:31:29;;;;;;;1.73;1.63;;;;;;;37.38;26.53;98096.91;5059209;28;20033;-83
2022/08/05 07:33:55;;;;;;;1.55;1.50;;;;;;;38.30;25.18;98087.63;5067041;28;20166;-83
2022/08/05 07:36:21;;;;;;;2.88;1.50;;;;;;;38.83;24.94;98091.16;5066947;28;20131;-83
2022/08/05 07:38:47;;;;;;;4.13;1.80;;;;;;;39.44;23.59;98093.41;5062178;28;20029;-82
2022/08/05 07:41:22;;;;;;;1.60;1.50;;;;;;;39.45;25.14;98094.94;5069939;28;20385;-82
2022/08/05 07:43:48;;;;;;;1.67;1.58;;;;;;;39.41;24.28;98097.34;5073289;28;20100;-83
2022/08/05 07:46:14;;;;;;;1.55;1.45;;;;;;;39.27;26.37;98091.50;5069151;28;20043;-82
2022/08/05 07:48:40;;;;;;;1.65;1.55;;;;;;;39.04;25.28;98095.13;5054530;28;20108;-81
2022/08/05 07:51:06;;;;;;;1.73;1.63;;;;;;;39.62;22.35;98092.69;5063252;28;20465;-82
2022/08/05 07:53:32;;;;;;;5.50;1.65;;;;;;;38.74;25.11;98092.28;5060317;28;20487;-82
2022/08/05 07:55:58;;;;;;;1.58;1.48;;;;;;;38.97;24.60;98093.63;5053492;28;20086;-82
2022/08/05 07:58:25;;;;;;;1.48;1.38;;;;;;;39.53;22.44;98090.94;5064154;28;20040;-82
2022/08/05 08:00:51;;;;;;;1.48;1.40;;;;;;;38.73;25.56;98096.44;5073417;28;20078;-82
2022/08/05 08:03:17;;;;;;;1.60;1.50;;;;;;;39.51;23.14;98090.72;5061950;28;20075;-82
2022/08/05 08:05:43;;;;;;;3.40;1.80;;;;;;;39.31;26.40;98094.06;5051996;28;20120;-82
2022/08/05 08:08:10;;;;;;;1.27;1.27;;;;;;;38.42;25.17;98082.56;5055523;28;20427;-82
2022/08/05 08:10:36;;;;;;;2.42;2.22;;;;;;;37.08;30.05;98096.72;5056751;28;20029;-82
2022/08/05 08:13:02;;;;;;;1.98;1.52;;;;;;;37.12;27.65;98093.56;5058392;28;20439;-82
2022/08/05 08:15:29;;;;;;;1.80;1.70;;;;;;;37.76;24.52;98090.22;5058243;28;20052;-82
2022/08/05 08:17:55;;;;;;;1.63;1.52;;;;;;;38.81;24.17;98097.44;5059803;28;20028;-82
2022/08/05 08:20:23;;;;;;;1.60;1.50;;;;;;;39.31;24.95;98094.06;5057286;28;20048;-82
2022/08/05 08:22:53;;;;;;;1.70;1.60;;;;;;;39.44;26.10;98091.31;5057915;28;20056;-82
2022/08/05 08:25:19;;;;;;;2.47;1.60;;;;;;;39.03;25.97;98097.19;5059851;28;20029;-82
2022/08/05 08:27:45;;;;;;;1.60;1.50;;;;;;;38.49;25.93;98090.59;5060231;28;20082;-82
2022/08/05 08:30:12;;;;;;;1.58;1.48;;;;;;;38.55;24.14;98092.16;5063087;28;20036;-82
2022/08/05 08:32:38;;;;;;;1.75;1.65;;;;;;;38.37;25.97;98092.78;5057890;28;20070;-82
2022/08/05 08:35:06;;;;;;;1.98;1.80;;;;;;;38.20;26.33;98091.31;5060292;28;20034;-82
2022/08/05 08:37:32;;;;;;;1.75;1.65;;;;;;;38.49;26.30;98102.09;5057151;28;20033;-82
2022/08/05 08:39:58;;;;;;;1.52;1.42;;;;;;;38.64;24.98;98094.66;5052016;28;20501;-82
2022/08/05 08:42:25;;;;;;;1.95;1.85;;;;;;;38.51;25.49;98094.50;5052115;28;20047;-82
2022/08/05 08:44:54;;;;;;;1.83;1.73;;;;;;;39.25;24.47;98099.09;5056588;28;20500;-83
2022/08/05 08:47:25;;;;;;;2.60;1.40;;;;;;;38.59;25.69;98094.72;5070908;28;20439;-82
2022/08/05 08:49:53;;;;;;;2.72;1.70;;;;;;;38.87;23.96;98085.88;5065598;28;20032;-82
2022/08/05 08:52:24;;;;;;;1.65;1.55;;;;;;;40.13;23.00;98093.59;5056656;28;20036;-83
2022/08/05 08:54:54;;;;;;;1.13;1.13;;;;;;;40.77;22.48;98086.59;5055835;28;20500;-82
2022/08/05 08:57:20;;;;;;;1.25;1.15;;;;;;;41.15;20.08;98092.97;5058125;28;20044;-82
2022/08/05 08:59:48;;;;;;;1.40;1.30;;;;;;;41.41;19.91;98089.38;5065581;28;20033;-82
2022/08/05 09:02:17;;;;;;;1.10;1.10;;;;;;;41.01;22.74;98092.19;5086763;28;20487;-82
2022/08/05 09:04:45;;;;;;;1.17;1.17;;;;;;;40.59;21.93;98090.28;5089084;28;20037;-82
2022/08/05 09:07:11;;;;;;;1.10;1.10;;;;;;;40.74;21.19;98090.56;5056760;28;20106;-82
2022/08/05 09:09:37;;;;;;;1.08;1.08;;;;;;;40.99;20.89;98094.84;5061922;28;20028;-82
2022/08/05 09:12:08;;;;;;;1.25;1.15;;;;;;;41.19;20.58;98093.44;5063665;28;20025;-83
2022/08/05 09:14:36;;;;;;;1.10;1.10;;;;;;;41.49;20.44;98099.69;5057271;28;20040;-82
2022/08/05 09:17:06;;;;;;;1.23;1.20;;;;;;;41.33;22.89;98101.56;5067546;28;20036;-82
2022/08/05 09:19:32;;;;;;;1.40;1.30;;;;;;;39.19;24.36;98099.16;5067644;28;20107;-82
2022/08/05 09:21:59;;;;;;;1.60;1.50;;;;;;;37.94;26.60;98089.66;5063347;28;20052;-82
2022/08/05 09:24:25;;;;;;;1.70;1.60;;;;;;;37.79;25.88;98085.53;5061611;28;20496;-82
2022/08/05 09:26:55;;;;;;;1.63;1.52;;;;;;;39.13;22.40;98078.31;5058489;28;20055;-83
2022/08/05 09:29:35;;;;;;;1.30;1.27;;;;;;;39.61;23.06;98085.41;5055396;28;20029;-83
2022/08/05 09:32:06;;;;;;;1.50;1.40;;;;;;;38.87;25.20;98077.25;5061490;28;20078;-82
2022/08/05 09:34:49;;;;;;;1.38;1.20;;;;;;;39.70;22.81;98082.91;5061212;28;20028;-82
2022/08/05 09:37:24;;;;;;;2.72;1.30;;;;;;;40.86;20.94;98077.56;5059826;28;20089;-82
2022/08/05 09:39:50;;;;;;;1.23;1.13;;;;;;;41.25;21.75;98074.72;5060891;28;20123;-82
2022/08/05 09:42:18;;;;;;;1.40;1.30;;;;;;;41.64;19.98;98073.94;5057533;28;20076;-82
2022/08/05 09:44:46;;;;;;;1.25;1.23;;;;;;;41.52;20.12;98069.72;5056764;28;20025;-82
2022/08/05 09:47:14;;;;;;;1.35;1.25;;;;;;;41.86;17.32;98064.84;5061808;28;20574;-82
2022/08/05 09:49:45;;;;;;;1.15;1.10;;;;;;;41.06;19.65;98058.84;5059417;28;20032;-82
2022/08/05 09:52:22;;;;;;;1.10;1.00;;;;;;;41.76;19.33;98063.75;5086635;28;20044;-82
2022/08/05 09:54:57;;;;;;;1.23;1.15;;;;;;;42.16;19.69;98052.13;5058429;28;20475;-83
2022/08/05 09:57:42;;;;;;;1.00;1.00;;;;;;;42.17;20.01;98054.47;5057809;28;20396;-82
2022/08/05 10:00:15;;;;;;;1.25;1.17;;;;;;;42.48;19.77;98052.63;5064080;28;20098;-82
2022/08/05 10:02:47;;;;;;;0.90;0.90;;;;;;;42.48;18.76;98059.19;5060677;28;20123;-83
2022/08/05 10:05:19;;;;;;;1.20;1.10;;;;;;;42.52;17.86;98053.91;5057647;28;20485;-83
2022/08/05 10:07:51;;;;;;;2.28;1.10;;;;;;;41.61;19.80;98056.97;5055211;28;20119;-82
2022/08/05 10:10:26;;;;;;;4.70;1.60;;;;;;;40.07;24.38;98056.28;5061038;28;20444;-82
2022/08/05 10:13:01;;;;;;;1.50;1.40;;;;;;;40.64;21.94;98049.09;5058471;28;20389;-82
2022/08/05 10:15:35;;;;;;;2.28;2.08;;;;;;;39.20;25.39;98056.84;5058570;28;20038;-81
2022/08/05 10:18:11;;;;;;;1.50;1.40;;;;;;;39.45;22.08;98054.72;5067768;28;20040;-79
2022/08/05 10:20:45;;;;;;;1.60;1.50;;;;;;;40.52;24.12;98053.50;5064034;28;20031;-82
2022/08/05 10:23:33;;;;;;;1.58;1.48;;;;;;;40.40;23.14;98052.13;5054681;28;20044;-81
2022/08/05 10:26:04;;;;;;;1.67;1.58;;;;;;;39.52;25.80;98059.84;5058136;28;20555;-81
2022/08/05 10:28:31;;;;;;;1.80;1.70;;;;;;;39.90;25.29;98053.63;5057208;28;20477;-80
2022/08/05 10:30:59;;;;;;;1.70;1.60;;;;;;;40.31;23.31;98049.66;5057990;28;20090;-80
2022/08/05 10:33:28;;;;;;;1.70;1.60;;;;;;;40.00;22.62;98046.13;5061291;28;20503;-80
2022/08/05 10:35:55;;;;;;;1.85;1.75;;;;;;;40.53;22.68;98041.44;5062512;28;20037;-81
2022/08/05 10:38:23;;;;;;;1.50;1.40;;;;;;;41.02;23.61;98047.66;5058746;28;20099;-81
2022/08/05 10:40:50;;;;;;;1.88;1.77;;;;;;;40.93;22.80;98047.31;5062054;28;20044;-82
2022/08/05 10:43:40;;;;;;;2.20;2.00;;;;;;;41.10;22.39;98045.66;5056527;28;20048;-81
2022/08/05 10:46:13;;;;;;;2.10;2.00;;;;;;;41.34;20.96;98047.56;5055923;28;20163;-80
2022/08/05 10:48:47;;;;;;;1.65;1.55;;;;;;;41.91;21.89;98043.75;5055633;28;20292;-80
2022/08/05 10:51:20;;;;;;;12.52;1.60;;;;;;;42.28;19.63;98036.88;5059696;28;20119;-81
2022/08/05 10:54:06;;;;;;;1.92;1.83;;;;;;;41.71;19.92;98041.56;5054101;28;20033;-81
2022/08/05 10:56:47;;;;;;;2.28;1.88;;;;;;;39.49;20.88;98044.47;5061818;28;20078;-81
2022/08/05 10:59:18;;;;;;;2.10;1.90;;;;;;;40.22;21.78;98035.63;5058243;28;20044;-81
2022/08/05 11:01:44;;;;;;;2.20;2.00;;;;;;;39.04;23.82;98041.34;5052916;28;20043;-81
2022/08/05 11:04:11;;;;;;;2.08;1.98;;;;;;;40.47;21.93;98035.00;5062711;28;20028;-81
2022/08/05 11:07:05;;;;;;;1.80;1.70;;;;;;;40.67;20.75;98034.41;5057889;28;20131;-81
2022/08/05 11:09:45;;;;;;;1.70;1.60;;;;;;;40.55;22.00;98020.72;5057689;28;20039;-82
2022/08/05 11:12:23;;;;;;;2.10;1.90;;;;;;;39.41;19.99;98029.16;5065070;28;20106;-81
2022/08/05 11:15:08;;;;;;;1.80;1.60;;;;;;;39.84;18.36;98024.16;5058681;28;20385;-81
2022/08/05 11:17:38;;;;;;;1.80;1.70;;;;;;;39.73;21.51;98024.31;5059097;28;20020;-81
2022/08/05 11:20:06;;;;;;;;;;;;;;;39.16;19.54;98025.53;5062134;28;20029;-82
2022/08/05 11:22:45;;;;;;;3.83;1.83;;;;;;;39.07;19.15;98019.38;5067007;28;20557;-82
2022/08/05 11:25:36;;;;;;;1.90;1.80;;;;;;;41.21;20.88;98018.75;5064417;28;20017;-81
2022/08/05 11:28:11;;;;;;;2.10;1.95;;;;;;;41.11;18.30;98024.16;5058364;28;20025;-82
2022/08/05 11:31:01;;;;;;;1.50;1.40;;;;;;;41.14;20.23;98022.28;5063377;28;20028;-81
2022/08/05 11:33:30;;;;;;;;;;;;;;;39.94;18.62;98019.56;5053981;28;20037;-81
2022/08/05 11:36:04;;;;;;;1.73;1.63;;;;;;;40.68;19.89;98017.91;5053189;28;19924;-82
2022/08/05 11:38:43;;;;;;;1.67;1.58;;;;;;;41.30;20.00;98019.09;5058004;28;20438;-82
2022/08/05 11:41:16;;;;;;;1.90;1.80;;;;;;;39.86;19.92;98026.50;5064737;28;20032;-82
2022/08/05 11:44:00;;;;;;;3.65;2.08;;;;;;;39.93;22.30;98026.63;5057293;28;20037;-81
2022/08/05 11:46:35;;;;;;;2.55;1.90;;;;;;;39.73;21.58;98029.28;5062340;28;20108;-82